METAR AND TAF INFORMATION
METAR FOR LERL
ADDS - METARS form results

(0917 UTC 16 May 2022)
Data provider http://aviationweather.gov/metar/data/
 
METAR text: LERL 160900Z 12003KT CAVOK 21/10 Q1022
Conditions at: LERL (CUIDAD REAL , ES) observed 0900 UTC 16 May 2022
Temperature: 21.0°C (70°F)
Dewpoint: 10.0°C (50°F) [RH = 49%]
Pressure (altimeter): 30.18 inches Hg (1022.0 mb)
Winds: from the ESE (120 degrees) at 3 MPH (3 knots; 1.5 m/s)
Visibility: 6 or more miles (10+ km)
Ceiling: ceiling and visibility are OK
Clouds: unknown
Weather: no significant weather observed at this time

METAR text: LERL 160830Z 26003KT 160V320 CAVOK 20/09 Q1022
Conditions at: LERL (CUIDAD REAL , ES) observed 0830 UTC 16 May 2022
Temperature: 20.0°C (68°F)
Dewpoint: 9.0°C (48°F) [RH = 49%]
Pressure (altimeter): 30.18 inches Hg (1022.0 mb)
Winds: from the W (260 degrees) at 3 MPH (3 knots; 1.5 m/s)
Visibility: 6 or more miles (10+ km)
Ceiling: ceiling and visibility are OK
Clouds: unknown
Weather: no significant weather observed at this time

Forecast for: LERL (CUIDAD REAL , ES)
Text: TAF LERL 160800Z 1609/1709 22007KT 9999 FEW045 TX29/1615Z TN14/1705Z
Forecast period: 0900 to 1300 UTC 16 May 2022
Forecast type: FROM: standard forecast or significant change
Winds: from the SW (220 degrees) at 8 MPH (7 knots; 3.6 m/s)
Visibility: 6 or more miles (10+ km)
Ceiling: at least 12,000 feet AGL
Clouds: few clouds at 4500 feet AGL
Weather: no significant weather forecast for this period
Text: BECMG 1613/1614 29007KT
Forecast period: 1300 to 2000 UTC 16 May 2022
Forecast type: BECOMING: Conditions expected to become as follows by 1400 UTC 16 May 2022
Winds: from the WNW (290 degrees) at 8 MPH (7 knots; 3.6 m/s)
Visibility: 6 or more miles (10+ km)
Ceiling: at least 12,000 feet AGL
Clouds: few clouds at 4500 feet AGL
Weather: no significant weather forecast for this period
Text: BECMG 1620/1621 VRB04KT
Forecast period: 2000 UTC 16 May 2022 to 0900 UTC 17 May 2022
Forecast type: BECOMING: Conditions expected to become as follows by 2100 UTC 16 May 2022
Winds: variable direction winds at 5 MPH (4 knots; 2.1 m/s)
Visibility: 6 or more miles (10+ km)
Ceiling: at least 12,000 feet AGL
Clouds: few clouds at 4500 feet AGL
Weather: no significant weather forecast for this period

 AIRPORT MAP

 RUNWAY INFORMATION
Runway 10 Runway length 13123 ft Runway width 197 ft
Runway elevation 0 ft Runway displaced threshold 0 ft Runway heading 0
Runway 28 Runway length 13123 ft Runway width 197 ft
Runway elevation 0 ft Runway displaced threshold 0 ft Runway heading 0

 AIRPORT FREQUENCIES

 AIRPORT NEAR NAVIGATION AIDS





Powered by Virtual Airlines Manager

Maps by Rafael Santos